F/V Matmaco — FVNS — position and weather

sailwx.info

Track history (hours):
 
Tides and Currents Weather Stations Pressure Air Temp Water Temp Dewpoint Dewpoint Depression Visibility Wind Speed Wind Dir Waves Ship Positions

F/V Matmaco

Last reported at 2017-Mar-30 23:06 UTC. Time now 2017-Mar-31 00:36 UTC.
Position N 46°27' W 002°53'.

Length 20 m.

Type: Other ship. MMSI: 228194000.

Date/timePositionNaut miles runAvg speedWind from/ knotsBaromVisibWave heightAir tempDewpointWater temp
2017-Mar-30 23:06N 46°27' W 002°53'2 3.8
2017-Mar-30 22:33N 46°26' W 002°51'4 3.8
2017-Mar-30 21:33N 46°23' W 002°48'3 3.2
2017-Mar-30 20:31N 46°20' W 002°46'3 3.3
2017-Mar-30 19:33N 46°16' W 002°46'4 2.0
2017-Mar-30 17:17N 46°19' W 002°41'3 3.5
2017-Mar-30 16:31N 46°22' W 002°40'33 3.3
2017-Mar-30 06:33N 46°51' W 003°00'10 9.4
2017-Mar-30 05:30N 46°60' W 002°52'9 9.0
2017-Mar-30 04:33N 47°07' W 002°45'9 8.8
2017-Mar-30 03:33N 47°14' W 002°38'6 6.2
2017-Mar-30 02:33N 47°18' W 002°31'2 1.9
2017-Mar-30 01:32N 47°19' W 002°33'1010.1
2017-Mar-30 00:33N 47°11' W 002°43'10 9.8
2017-Mar-29 23:32N 47°03' W 002°52'9 9.2
2017-Mar-29 22:32N 46°56' W 003°01'10 8.8
2017-Mar-29 21:26N 46°49' W 003°10'3 3.1
2017-Mar-29 20:32N 46°46' W 003°11'4 3.7
2017-Mar-29 19:24N 46°45' W 003°05'3 3.7
2017-Mar-29 18:32N 46°44' W 003°01'1 1.2
2017-Mar-29 17:33N 46°45' W 003°02'1 0.6
2017-Mar-29 16:15N 46°45' W 003°01'3 3.4
2017-Mar-29 15:23N 46°43' W 002°59'3 3.5
2017-Mar-29 14:33N 46°40' W 002°57'4 3.5
2017-Mar-29 13:29N 46°38' W 002°53'1 0.9
2017-Mar-29 12:33N 46°39' W 002°53'2 2.3
2017-Mar-29 11:33N 46°40' W 002°50'3 3.0
2017-Mar-29 10:33N 46°38' W 002°54'4 3.3
2017-Mar-29 09:19N 46°41' W 002°58'6 3.1
2017-Mar-29 07:13N 46°45' W 003°05'2 2.8
2017-Mar-29 06:31N 46°45' W 003°02'3 3.5
2017-Mar-29 05:33N 46°42' W 003°00'3 3.5
2017-Mar-29 04:33N 46°38' W 002°58'19 2.7
2017-Mar-28 21:30N 46°49' W 003°22'7 3.3
2017-Mar-28 19:16N 46°56' W 003°25'2 3.1
2017-Mar-28 18:32N 46°59' W 003°25'3 3.4
2017-Mar-28 17:32N 47°02' W 003°27'2 2.5
2017-Mar-28 16:33N 47°04' W 003°29'6 1.2
2017-Mar-28 11:27N 47°09' W 003°34'18 2.6
2017-Mar-28 04:23N 46°59' W 003°11'7 8.7
2017-Mar-28 03:32N 47°04' W 003°02'8 8.3
2017-Mar-28 02:33N 47°09' W 002°53'8 8.3
2017-Mar-28 01:32N 47°13' W 002°42'8 7.6
2017-Mar-28 00:33N 47°18' W 002°35'3 2.5
2017-Mar-27 23:33N 47°18' W 002°31'0 0.0
2017-Mar-27 08:32N 47°18' W 002°31'  
2017-Mar-25 04:31N 47°18' W 002°31'0 0.0
2017-Mar-25 03:27N 47°18' W 002°31'0 0.1
2017-Mar-25 02:33N 47°18' W 002°31'2 1.7
2017-Mar-25 01:33N 47°19' W 002°33'9 8.8
2017-Mar-25 00:32N 47°12' W 002°41'9 9.4
2017-Mar-24 23:32N 47°05' W 002°51'9 9.5
2017-Mar-24 22:32N 46°59' W 003°01'10 0.2
2017-Mar-23 04:29N 47°06' W 003°11'9 9.6
2017-Mar-23 03:32N 47°10' W 003°00'9 9.4
2017-Mar-23 02:32N 47°15' W 002°48'9 9.1
2017-Mar-23 01:33N 47°19' W 002°36'4 3.8
2017-Mar-23 00:32N 47°18' W 002°31'7 6.7
2017-Mar-22 23:33N 47°19' W 002°41'8 8.3
2017-Mar-22 22:32N 47°15' W 002°52'9 8.5
2017-Mar-22 21:32N 47°11' W 003°03'8 8.2
2017-Mar-22 20:32N 47°08' W 003°14'5 5.2
2017-Mar-22 19:32N 47°06' W 003°21'6 0.1
2017-Mar-21 03:32N 47°07' W 003°13'9 8.9
2017-Mar-21 02:33N 47°11' W 003°02'9 9.2
2017-Mar-21 01:33N 47°15' W 002°50'9 9.1
2017-Mar-21 00:32N 47°19' W 002°37'4 2.9
2017-Mar-20 23:07N 47°18' W 002°31'  
Track history (hours):
 
Tides and Currents Weather Stations Pressure Air Temp Water Temp Dewpoint Dewpoint Depression Visibility Wind Speed Wind Dir Waves Ship Positions

F/V Matmaco

Last reported at 2017-Mar-30 23:06 UTC. Time now 2017-Mar-31 00:36 UTC.
Position N 46°27' W 002°53'.

Length 20 m.

Type: Other ship. MMSI: 228194000.

Date/timePositionNaut miles runAvg speedWind from/ knotsBaromVisibWave heightAir tempDewpointWater temp
2017-Mar-30 23:06N 46°27' W 002°53'2 3.8
2017-Mar-30 22:33N 46°26' W 002°51'4 3.8
2017-Mar-30 21:33N 46°23' W 002°48'3 3.2
2017-Mar-30 20:31N 46°20' W 002°46'3 3.3
2017-Mar-30 19:33N 46°16' W 002°46'4 2.0
2017-Mar-30 17:17N 46°19' W 002°41'3 3.5
2017-Mar-30 16:31N 46°22' W 002°40'33 3.3
2017-Mar-30 06:33N 46°51' W 003°00'10 9.4
2017-Mar-30 05:30N 46°60' W 002°52'9 9.0
2017-Mar-30 04:33N 47°07' W 002°45'9 8.8
2017-Mar-30 03:33N 47°14' W 002°38'6 6.2
2017-Mar-30 02:33N 47°18' W 002°31'2 1.9
2017-Mar-30 01:32N 47°19' W 002°33'1010.1
2017-Mar-30 00:33N 47°11' W 002°43'10 9.8
2017-Mar-29 23:32N 47°03' W 002°52'9 9.2
2017-Mar-29 22:32N 46°56' W 003°01'10 8.8
2017-Mar-29 21:26N 46°49' W 003°10'3 3.1
2017-Mar-29 20:32N 46°46' W 003°11'4 3.7
2017-Mar-29 19:24N 46°45' W 003°05'3 3.7
2017-Mar-29 18:32N 46°44' W 003°01'1 1.2
2017-Mar-29 17:33N 46°45' W 003°02'1 0.6
2017-Mar-29 16:15N 46°45' W 003°01'3 3.4
2017-Mar-29 15:23N 46°43' W 002°59'3 3.5
2017-Mar-29 14:33N 46°40' W 002°57'4 3.5
2017-Mar-29 13:29N 46°38' W 002°53'1 0.9
2017-Mar-29 12:33N 46°39' W 002°53'2 2.3
2017-Mar-29 11:33N 46°40' W 002°50'3 3.0
2017-Mar-29 10:33N 46°38' W 002°54'4 3.3
2017-Mar-29 09:19N 46°41' W 002°58'6 3.1
2017-Mar-29 07:13N 46°45' W 003°05'2 2.8
2017-Mar-29 06:31N 46°45' W 003°02'3 3.5
2017-Mar-29 05:33N 46°42' W 003°00'3 3.5
2017-Mar-29 04:33N 46°38' W 002°58'19 2.7
2017-Mar-28 21:30N 46°49' W 003°22'7 3.3
2017-Mar-28 19:16N 46°56' W 003°25'2 3.1
2017-Mar-28 18:32N 46°59' W 003°25'3 3.4
2017-Mar-28 17:32N 47°02' W 003°27'2 2.5
2017-Mar-28 16:33N 47°04' W 003°29'6 1.2
2017-Mar-28 11:27N 47°09' W 003°34'18 2.6
2017-Mar-28 04:23N 46°59' W 003°11'7 8.7
2017-Mar-28 03:32N 47°04' W 003°02'8 8.3
2017-Mar-28 02:33N 47°09' W 002°53'8 8.3
2017-Mar-28 01:32N 47°13' W 002°42'8 7.6
2017-Mar-28 00:33N 47°18' W 002°35'3 2.5
2017-Mar-27 23:33N 47°18' W 002°31'0 0.0
2017-Mar-27 08:32N 47°18' W 002°31'  
2017-Mar-25 04:31N 47°18' W 002°31'0 0.0
2017-Mar-25 03:27N 47°18' W 002°31'0 0.1
2017-Mar-25 02:33N 47°18' W 002°31'2 1.7
2017-Mar-25 01:33N 47°19' W 002°33'9 8.8
2017-Mar-25 00:32N 47°12' W 002°41'9 9.4
2017-Mar-24 23:32N 47°05' W 002°51'9 9.5
2017-Mar-24 22:32N 46°59' W 003°01'10 0.2
2017-Mar-23 04:29N 47°06' W 003°11'9 9.6
2017-Mar-23 03:32N 47°10' W 003°00'9 9.4
2017-Mar-23 02:32N 47°15' W 002°48'9 9.1
2017-Mar-23 01:33N 47°19' W 002°36'4 3.8
2017-Mar-23 00:32N 47°18' W 002°31'7 6.7
2017-Mar-22 23:33N 47°19' W 002°41'8 8.3
2017-Mar-22 22:32N 47°15' W 002°52'9 8.5
2017-Mar-22 21:32N 47°11' W 003°03'8 8.2
2017-Mar-22 20:32N 47°08' W 003°14'5 5.2
2017-Mar-22 19:32N 47°06' W 003°21'6 0.1
2017-Mar-21 03:32N 47°07' W 003°13'9 8.9
2017-Mar-21 02:33N 47°11' W 003°02'9 9.2
2017-Mar-21 01:33N 47°15' W 002°50'9 9.1
2017-Mar-21 00:32N 47°19' W 002°37'4 2.9
2017-Mar-20 23:07N 47°18' W 002°31'  

Dump ship's entire track history